Time;durP1;ratioP1;P1;durP2;ratioP2;P2;SDS_P1;SDS_P2;PMS_P1;PMS_P2;Temp;Humidity;BMP_temperature;BMP_pressure;BME280_temperature;BME280_humidity;BME280_pressure;Samples;Min_cycle;Max_cycle;Signal;HPM_P1;HPM_P2
2023/05/12 00:01:34;;;;;;;24.20;11.02;;;14.40;99.90;;;;;;6263530;22;19999;-95
2023/05/12 00:04:00;;;;;;;21.92;11.90;;;14.50;99.90;;;;;;6315155;22;20428;-94
2023/05/12 00:06:26;;;;;;;22.90;11.63;;;14.50;99.90;;;;;;6320143;22;20427;-93
2023/05/12 00:08:52;;;;;;;26.80;13.00;;;14.40;99.90;;;;;;6302012;22;19998;-93
2023/05/12 00:11:18;;;;;;;23.38;12.18;;;14.40;99.90;;;;;;6304288;22;20018;-94
2023/05/12 00:13:43;;;;;;;23.45;13.15;;;14.40;99.90;;;;;;6337934;22;19999;-93
2023/05/12 00:16:09;;;;;;;22.73;12.02;;;14.40;99.90;;;;;;6312294;22;19998;-93
2023/05/12 00:18:35;;;;;;;25.25;12.48;;;14.40;99.90;;;;;;6313484;22;20009;-92
2023/05/12 00:21:01;;;;;;;22.55;11.68;;;14.40;99.90;;;;;;6285470;22;20002;-96
2023/05/12 00:23:27;;;;;;;26.20;12.30;;;14.40;99.90;;;;;;6300135;22;20007;-94
2023/05/12 00:25:53;;;;;;;25.45;12.98;;;14.40;99.90;;;;;;6320765;22;20030;-96
2023/05/12 00:28:19;;;;;;;24.23;11.35;;;14.40;99.90;;;;;;6318126;22;19998;-95
2023/05/12 00:30:45;;;;;;;24.30;12.55;;;14.40;99.90;;;;;;6319969;22;19995;-95
2023/05/12 00:33:15;;;;;;;28.55;12.65;;;14.30;99.90;;;;;;6319524;22;20014;-95
2023/05/12 00:35:46;;;;;;;21.15;11.80;;;14.30;99.90;;;;;;6321673;22;20021;-96
2023/05/12 00:38:12;;;;;;;;;;;14.30;99.90;;;;;;6297790;22;20003;-96
2023/05/12 00:41:03;;;;;;;26.83;12.15;;;14.30;99.90;;;;;;6334675;22;19936;-96
2023/05/12 00:43:38;;;;;;;23.05;12.07;;;14.30;99.90;;;;;;6364242;22;20014;-96
2023/05/12 00:46:05;;;;;;;20.35;11.60;;;14.30;99.90;;;;;;6310809;22;20011;-96
2023/05/12 00:48:41;;;;;;;21.55;11.95;;;14.30;99.90;;;;;;6337105;22;20003;-96
2023/05/12 00:51:07;;;;;;;20.00;10.73;;;14.30;99.90;;;;;;6312662;22;20036;-96
2023/05/12 00:53:35;;;;;;;24.13;12.00;;;14.30;99.90;;;;;;6337135;22;20003;-96
2023/05/12 00:56:01;;;;;;;18.85;10.82;;;14.20;99.90;;;;;;6306475;22;20010;-93
2023/05/12 00:58:27;;;;;;;23.17;11.80;;;14.20;99.90;;;;;;6314789;22;19995;-93
2023/05/12 01:00:53;;;;;;;16.52;9.73;;;14.20;99.90;;;;;;6315358;22;20030;-96
2023/05/12 01:03:19;;;;;;;19.88;9.70;;;14.20;99.90;;;;;;6267744;22;19983;-95
2023/05/12 01:06:14;;;;;;;18.90;9.85;;;14.20;99.90;;;;;;6321951;22;19999;-96
2023/05/12 01:15:24;;;;;;;14.38;7.57;;;14.10;99.90;;;;;;6342959;22;20047;-94
2023/05/12 01:17:58;;;;;;;15.68;6.65;;;14.20;99.90;;;;;;6289663;22;20368;-94
2023/05/12 01:20:27;;;;;;;11.32;5.82;;;14.10;99.90;;;;;;6324216;22;20010;-96
2023/05/12 01:22:54;;;;;;;13.48;6.80;;;14.10;99.90;;;;;;6305482;22;20091;-96
2023/05/12 01:25:25;;;;;;;16.25;6.60;;;14.10;99.90;;;;;;6289081;22;20010;-96
2023/05/12 01:27:52;;;;;;;14.02;6.57;;;14.10;99.90;;;;;;6290343;22;20012;-96
2023/05/12 01:30:20;;;;;;;13.73;5.90;;;14.10;99.90;;;;;;6292139;22;20011;-95
2023/05/12 01:32:46;;;;;;;14.65;5.60;;;14.10;99.90;;;;;;6290812;22;20020;-94
2023/05/12 01:35:11;;;;;;;9.32;4.80;;;14.10;99.90;;;;;;6272786;22;20012;-93
2023/05/12 01:37:37;;;;;;;10.50;4.88;;;14.10;99.90;;;;;;6260292;22;20070;-96
2023/05/12 01:40:04;;;;;;;8.27;4.15;;;14.10;99.90;;;;;;6233113;22;20008;-95
2023/05/12 01:42:30;;;;;;;8.10;4.20;;;14.10;99.90;;;;;;6282293;22;20053;-95
2023/05/12 01:44:55;;;;;;;8.90;4.30;;;14.10;99.90;;;;;;6282366;22;20004;-96
2023/05/12 01:47:21;;;;;;;9.50;4.00;;;14.00;99.90;;;;;;6253633;22;20054;-93
2023/05/12 01:49:47;;;;;;;11.13;3.97;;;14.00;99.90;;;;;;6252770;22;20014;-93
2023/05/12 01:52:12;;;;;;;11.00;4.25;;;14.10;99.90;;;;;;6278261;22;19999;-92
2023/05/12 01:54:38;;;;;;;11.60;4.72;;;14.00;99.90;;;;;;6252402;22;20012;-94
2023/05/12 01:57:04;;;;;;;8.15;3.95;;;14.00;99.90;;;;;;6261047;22;20012;-95
2023/05/12 01:59:30;;;;;;;9.68;4.65;;;14.00;99.90;;;;;;6264761;22;20482;-95
2023/05/12 02:01:56;;;;;;;14.20;5.53;;;14.00;99.90;;;;;;6254514;22;20064;-96
2023/05/12 02:04:21;;;;;;;14.45;5.00;;;14.00;99.90;;;;;;6260617;22;20038;-96
2023/05/12 02:06:50;;;;;;;11.88;5.40;;;14.00;99.90;;;;;;6281451;22;19999;-95
2023/05/12 02:09:16;;;;;;;16.40;6.68;;;13.90;99.90;;;;;;6281759;22;20026;-95
2023/05/12 02:11:42;;;;;;;13.63;6.65;;;14.00;99.90;;;;;;6284439;22;20427;-96
2023/05/12 02:14:08;;;;;;;15.32;6.22;;;14.00;99.90;;;;;;6281595;22;20026;-95
2023/05/12 02:16:33;;;;;;;21.50;7.72;;;14.00;99.90;;;;;;6252169;22;20012;-93
2023/05/12 02:18:59;;;;;;;18.15;6.60;;;14.00;99.90;;;;;;6253060;22;20453;-95
2023/05/12 02:21:27;;;;;;;20.52;7.78;;;14.00;99.90;;;;;;6255271;22;20004;-96
2023/05/12 02:23:53;;;;;;;20.15;7.95;;;13.90;99.90;;;;;;6285324;22;20015;-95
2023/05/12 02:26:20;;;;;;;23.27;8.93;;;13.90;99.90;;;;;;6288671;22;19999;-95
2023/05/12 02:28:45;;;;;;;21.20;8.85;;;13.90;99.90;;;;;;6263919;22;20039;-94
2023/05/12 02:31:11;;;;;;;21.85;8.93;;;13.90;99.90;;;;;;6255454;22;20003;-96
2023/05/12 02:33:37;;;;;;;26.83;9.63;;;14.00;99.90;;;;;;6229521;22;20007;-96
2023/05/12 02:36:03;;;;;;;24.65;10.52;;;13.90;99.90;;;;;;6278375;22;20415;-95
2023/05/12 02:38:28;;;;;;;32.33;12.10;;;14.00;99.90;;;;;;6252452;22;20453;-94
2023/05/12 02:40:54;;;;;;;32.78;11.55;;;14.00;99.90;;;;;;6277233;22;20004;-95
2023/05/12 02:43:20;;;;;;;30.23;11.73;;;13.90;99.90;;;;;;6226935;22;20058;-95
2023/05/12 02:45:53;;;;;;;31.83;12.77;;;13.90;99.90;;;;;;6234981;22;20003;-96
2023/05/12 02:48:27;;;;;;;36.30;13.70;;;13.90;99.90;;;;;;6275194;22;20403;-96
2023/05/12 02:53:28;;;;;;;37.80;14.77;;;13.90;99.90;;;;;;6204790;22;20019;-93
2023/05/12 02:55:53;;;;;;;37.92;15.05;;;13.90;99.90;;;;;;6277721;22;20441;-93
2023/05/12 02:58:19;;;;;;;41.17;15.00;;;13.90;99.90;;;;;;6226596;22;20003;-94
2023/05/12 03:00:45;;;;;;;41.22;15.55;;;13.90;99.90;;;;;;6227137;22;20077;-93
2023/05/12 03:03:11;;;;;;;43.45;15.32;;;13.90;99.90;;;;;;6277095;22;20002;-94
2023/05/12 03:05:36;;;;;;;50.08;17.40;;;13.90;99.90;;;;;;6277238;22;20010;-93
2023/05/12 03:08:02;;;;;;;41.13;16.73;;;13.90;99.90;;;;;;6227857;22;20422;-94
2023/05/12 03:18:28;;;;;;;68.70;19.95;;;13.90;99.90;;;;;;6241232;22;20020;-95
2023/05/12 03:20:54;;;;;;;48.22;17.75;;;13.90;99.90;;;;;;6230866;22;20033;-96
2023/05/12 03:23:20;;;;;;;58.45;19.65;;;13.90;99.90;;;;;;6282081;22;19999;-96
2023/05/12 03:25:49;;;;;;;45.78;18.27;;;13.90;99.90;;;;;;6282103;22;20425;-95
2023/05/12 03:28:15;;;;;;;58.30;19.52;;;13.90;99.90;;;;;;6283877;22;20069;-96
2023/05/12 03:30:40;;;;;;;57.75;18.58;;;13.90;99.90;;;;;;6255387;22;20419;-96
2023/05/12 03:33:08;;;;;;;61.85;20.33;;;13.90;99.90;;;;;;6256426;22;20134;-96
2023/05/12 03:35:33;;;;;;;48.33;19.65;;;13.90;99.90;;;;;;6282659;22;20002;-96
2023/05/12 03:37:59;;;;;;;54.53;20.70;;;13.90;99.90;;;;;;6257839;22;20035;-96
2023/05/12 03:56:04;;;;;;;64.47;23.27;;;13.90;99.90;;;;;;6276416;22;20030;-96
2023/05/12 03:58:36;;;;;;;63.63;24.42;;;13.90;99.90;;;;;;6333196;22;19991;-96
2023/05/12 04:01:02;;;;;;;78.82;25.42;;;13.90;99.90;;;;;;6298958;22;20007;-96
2023/05/12 04:03:42;;;;;;;72.28;25.67;;;13.90;99.90;;;;;;6323775;22;20022;-96
2023/05/12 04:06:15;;;;;;;70.72;24.65;;;13.90;99.90;;;;;;6297319;22;20011;-96
2023/05/12 04:08:59;;;;;;;72.63;24.83;;;13.80;99.90;;;;;;6332179;22;20027;-96
2023/05/12 04:16:52;;;;;;;76.00;27.50;;;13.90;99.90;;;;;;6201755;22;20324;-95
2023/05/12 04:19:18;;;;;;;92.28;29.27;;;13.90;99.90;;;;;;6227319;22;20012;-93
2023/05/12 04:21:43;;;;;;;116.43;29.50;;;13.90;99.90;;;;;;6227018;22;20018;-95
2023/05/12 04:24:09;;;;;;;78.05;26.75;;;13.90;99.90;;;;;;6252893;22;20014;-96
2023/05/12 04:26:35;;;;;;;103.10;30.38;;;13.90;99.90;;;;;;6252682;22;19996;-95
2023/05/12 04:29:00;;;;;;;103.60;30.30;;;13.90;99.90;;;;;;6203207;22;20035;-93
2023/05/12 04:31:26;;;;;;;106.95;29.83;;;13.90;99.90;;;;;;6202462;22;20030;-94
2023/05/12 04:33:54;;;;;;;104.55;30.95;;;13.90;99.90;;;;;;6226465;22;20000;-94
2023/05/12 04:36:19;;;;;;;104.40;30.40;;;13.90;99.90;;;;;;6202230;22;20003;-92
2023/05/12 04:38:45;;;;;;;113.20;32.10;;;13.80;99.90;;;;;;6226186;22;20010;-93
2023/05/12 04:41:11;;;;;;;104.70;29.85;;;13.70;99.90;;;;;;6251338;22;20004;-94
2023/05/12 04:43:37;;;;;;;107.28;30.67;;;13.80;99.90;;;;;;6227045;22;20004;-94
2023/05/12 04:46:02;;;;;;;111.72;30.88;;;13.80;99.90;;;;;;6251461;22;20011;-93
2023/05/12 04:48:28;;;;;;;94.90;31.83;;;13.90;99.90;;;;;;6225840;22;20028;-94
2023/05/12 04:51:10;;;;;;;113.63;34.28;;;13.90;99.90;;;;;;6244585;22;19991;-96
2023/05/12 04:53:37;;;;;;;29.23;9.80;;;13.90;99.90;;;;;;6268018;22;20007;-96
2023/05/12 04:56:03;;;;;;;1.55;1.02;;;14.00;99.90;;;;;;6269620;22;20012;-96
2023/05/12 05:18:50;;;;;;;;;;;;;;;;;;;;;
2023/05/12 06:00:59;;;;;;;138.20;47.90;;;14.20;99.90;;;;;;6229524;23;20036;-95
2023/05/12 06:03:26;;;;;;;139.40;48.10;;;14.30;99.90;;;;;;6219137;23;20012;-96
2023/05/12 06:05:51;;;;;;;143.95;50.70;;;14.30;99.90;;;;;;6220993;23;20005;-96
2023/05/12 06:08:22;;;;;;;149.32;49.65;;;14.30;99.90;;;;;;6199668;23;20101;-96
2023/05/12 06:13:24;;;;;;;135.68;48.83;;;14.40;99.90;;;;;;6208483;23;20021;-94
2023/05/12 06:15:49;;;;;;;157.60;51.45;;;14.40;99.90;;;;;;6195495;23;20036;-93
2023/05/12 06:18:15;;;;;;;129.80;48.85;;;14.40;99.90;;;;;;6195218;23;20001;-95
2023/05/12 06:20:41;;;;;;;136.60;49.10;;;14.40;99.90;;;;;;6195753;23;20086;-95
2023/05/12 06:23:07;;;;;;;142.02;48.97;;;14.40;99.90;;;;;;6194903;23;19997;-92
2023/05/12 06:25:32;;;;;;;140.30;51.33;;;14.40;99.90;;;;;;6195495;23;20056;-95
2023/05/12 06:27:58;;;;;;;145.55;52.88;;;14.40;99.90;;;;;;6170289;23;20095;-94
2023/05/12 06:43:22;;;;;;;132.07;49.13;;;14.50;99.90;;;;;;6243298;22;20046;-94
2023/05/12 06:46:01;;;;;;;113.55;46.42;;;14.60;99.90;;;;;;6208432;23;20008;-96
2023/05/12 06:51:43;;;;;;;117.75;46.95;;;14.60;99.90;;;;;;6119006;23;20017;-96
2023/05/12 07:07:15;;;;;;;101.03;42.55;;;14.70;99.90;;;;;;6201314;23;20017;-94
2023/05/12 07:09:41;;;;;;;97.30;43.63;;;14.80;99.90;;;;;;6168645;23;20011;-95
2023/05/12 07:12:08;;;;;;;99.75;42.45;;;14.80;99.90;;;;;;6168736;23;20013;-95
2023/05/12 07:14:33;;;;;;;89.15;41.15;;;14.80;99.90;;;;;;6169510;23;20005;-95
2023/05/12 07:16:59;;;;;;;92.50;42.03;;;14.80;99.90;;;;;;6169228;23;20004;-94
2023/05/12 07:19:25;;;;;;;89.60;41.70;;;14.90;99.90;;;;;;6169097;23;20009;-92
2023/05/12 07:21:51;;;;;;;74.07;36.92;;;14.90;99.90;;;;;;6166583;23;20004;-92
2023/05/12 07:24:17;;;;;;;83.20;37.85;;;14.90;99.90;;;;;;6167554;23;20001;-94
2023/05/12 07:26:43;;;;;;;59.45;37.70;;;14.90;99.90;;;;;;6167680;23;20486;-93
2023/05/12 07:29:09;;;;;;;65.65;37.53;;;15.00;99.90;;;;;;6193228;23;20087;-94
2023/05/12 07:31:36;;;;;;;64.05;33.42;;;15.00;99.90;;;;;;6168055;23;20016;-95
2023/05/12 07:34:02;;;;;;;50.92;31.48;;;15.00;99.90;;;;;;6168357;23;20009;-94
2023/05/12 07:36:39;;;;;;;54.10;32.20;;;15.00;99.90;;;;;;6179301;23;19989;-96
2023/05/12 07:41:44;;;;;;;51.53;31.02;;;15.10;99.90;;;;;;6219294;23;20005;-96
2023/05/12 07:44:11;;;;;;;53.58;33.70;;;15.10;99.90;;;;;;6207733;23;20472;-93
2023/05/12 07:46:36;;;;;;;65.35;37.25;;;15.20;99.90;;;;;;6193034;23;20027;-94
2023/05/12 07:49:02;;;;;;;58.17;33.10;;;15.20;99.90;;;;;;6168944;23;20001;-94
2023/05/12 07:51:29;;;;;;;59.30;34.47;;;15.20;99.90;;;;;;6167923;23;20028;-94
2023/05/12 07:53:56;;;;;;;50.33;35.38;;;15.30;99.90;;;;;;6177288;23;20005;-96
2023/05/12 07:56:22;;;;;;;54.00;34.67;;;15.30;99.90;;;;;;6185399;23;20072;-96
2023/05/12 07:58:50;;;;;;;50.15;32.97;;;15.30;99.90;;;;;;6232317;23;20024;-95
2023/05/12 08:01:16;;;;;;;46.40;32.85;;;15.40;99.90;;;;;;6179323;23;20013;-96
2023/05/12 08:03:44;;;;;;;54.92;36.35;;;15.40;99.90;;;;;;6200317;23;20326;-96
2023/05/12 08:06:13;;;;;;;43.92;34.28;;;15.40;99.90;;;;;;6176801;23;20064;-96
2023/05/12 08:08:39;;;;;;;50.03;35.53;;;15.40;99.90;;;;;;6200879;23;19988;-96
2023/05/12 08:11:05;;;;;;;42.88;34.92;;;15.50;99.90;;;;;;6192753;23;20160;-92
2023/05/12 08:13:30;;;;;;;34.60;26.40;;;15.50;99.90;;;;;;6167643;23;20004;-92
2023/05/12 08:15:56;;;;;;;43.33;33.17;;;15.50;99.90;;;;;;6167246;23;20013;-93
2023/05/12 08:18:22;;;;;;;39.72;27.80;;;15.50;99.90;;;;;;6167898;23;20013;-94
2023/05/12 08:20:49;;;;;;;1999.90;999.90;;;15.60;99.90;;;;;;6167121;23;20005;-92
2023/05/12 08:23:17;;;;;;;1999.90;999.90;;;15.60;99.90;;;;;;6192052;23;20004;-95
2023/05/12 08:25:43;;;;;;;32.22;20.85;;;15.60;99.90;;;;;;6192592;23;20021;-94
2023/05/12 08:28:11;;;;;;;34.20;20.45;;;15.70;99.90;;;;;;6168058;23;20008;-93
2023/05/12 08:30:37;;;;;;;29.40;19.52;;;15.70;99.90;;;;;;6191878;23;20070;-93
2023/05/12 08:33:03;;;;;;;33.75;21.05;;;15.80;99.90;;;;;;6192459;23;20000;-94
2023/05/12 08:35:29;;;;;;;28.67;18.35;;;15.80;99.90;;;;;;6167030;23;20004;-94
2023/05/12 08:37:56;;;;;;;27.52;19.13;;;15.80;99.90;;;;;;6167460;23;20012;-95
2023/05/12 08:40:23;;;;;;;27.88;18.08;;;15.90;99.90;;;;;;6191565;23;20000;-93
2023/05/12 08:43:06;;;;;;;22.92;17.77;;;15.90;99.90;;;;;;6174122;23;20009;-96
2023/05/12 08:45:37;;;;;;;20.73;16.02;;;16.00;99.90;;;;;;6215259;23;20015;-95
2023/05/12 08:48:05;;;;;;;17.17;14.33;;;16.00;99.90;;;;;;6217245;23;20012;-95
2023/05/12 08:50:35;;;;;;;19.50;14.00;;;16.00;99.90;;;;;;6215954;23;20283;-94
2023/05/12 08:53:04;;;;;;;17.65;15.15;;;16.00;99.90;;;;;;6218120;23;20027;-94
2023/05/12 08:55:31;;;;;;;16.38;14.23;;;16.10;99.90;;;;;;6193140;23;20019;-95
2023/05/12 08:57:58;;;;;;;15.93;13.00;;;16.10;99.90;;;;;;6217972;23;20051;-94
2023/05/12 09:00:25;;;;;;;15.10;13.10;;;16.10;99.90;;;;;;6200231;23;20005;-94
2023/05/12 09:02:54;;;;;;;16.70;13.07;;;16.10;99.90;;;;;;6171937;23;20058;-96
2023/05/12 09:05:21;;;;;;;13.30;11.50;;;16.20;99.90;;;;;;6198337;23;20066;-96
2023/05/12 09:07:48;;;;;;;12.63;10.45;;;16.20;99.90;;;;;;6197863;23;19997;-96
2023/05/12 09:10:19;;;;;;;11.15;9.98;;;16.20;99.90;;;;;;6196567;23;20001;-96
2023/05/12 09:12:51;;;;;;;11.48;10.27;;;16.20;99.90;;;;;;6193590;23;20022;-94
2023/05/12 09:15:22;;;;;;;10.07;9.07;;;16.20;99.90;;;;;;6193017;23;20007;-94
2023/05/12 09:17:47;;;;;;;9.48;8.48;;;16.30;99.90;;;;;;6192598;23;20013;-93
2023/05/12 09:20:15;;;;;;;10.55;8.27;;;16.30;99.90;;;;;;6192256;23;20468;-93
2023/05/12 09:22:40;;;;;;;10.43;8.80;;;16.40;99.90;;;;;;6166761;23;20004;-93
2023/05/12 09:25:20;;;;;;;10.77;8.82;;;16.40;99.90;;;;;;6144170;23;20011;-95
2023/05/12 09:27:48;;;;;;;8.38;7.47;;;16.40;99.90;;;;;;6190825;23;20011;-92
2023/05/12 09:30:14;;;;;;;9.80;8.90;;;16.40;99.90;;;;;;6141997;23;20012;-94
2023/05/12 09:32:40;;;;;;;8.95;8.15;;;16.40;99.90;;;;;;6192076;23;20000;-94
2023/05/12 09:35:11;;;;;;;9.27;8.27;;;16.50;99.90;;;;;;6167882;23;20099;-95
2023/05/12 09:37:39;;;;;;;6.38;5.15;;;16.50;99.90;;;;;;6169409;23;20013;-96
2023/05/12 09:40:06;;;;;;;6.75;5.63;;;16.50;99.90;;;;;;6193737;23;20446;-95
2023/05/12 09:42:33;;;;;;;9.35;5.43;;;16.50;99.90;;;;;;6164715;23;20317;-96
2023/05/12 09:45:08;;;;;;;6.35;5.13;;;16.50;99.90;;;;;;6188152;23;20025;-95
2023/05/12 09:47:36;;;;;;;7.15;5.38;;;16.50;99.90;;;;;;6193806;23;20008;-94
2023/05/12 09:50:04;;;;;;;5.95;4.45;;;16.50;99.90;;;;;;6190071;23;20005;-91
2023/05/12 09:52:31;;;;;;;6.63;5.50;;;16.50;99.90;;;;;;6185887;23;20005;-90
2023/05/12 09:55:08;;;;;;;6.50;5.05;;;16.60;99.90;;;;;;6161190;23;20009;-91
2023/05/12 09:57:40;;;;;;;6.05;5.20;;;16.60;99.90;;;;;;6186160;23;20009;-92
2023/05/12 10:00:14;;;;;;;8.07;5.90;;;16.60;99.90;;;;;;6186256;23;20060;-91
2023/05/12 10:02:43;;;;;;;8.82;6.20;;;16.60;99.90;;;;;;6185937;23;20076;-92
2023/05/12 10:05:15;;;;;;;6.53;5.65;;;16.70;99.90;;;;;;6162024;23;20001;-91
2023/05/12 10:07:44;;;;;;;6.22;5.45;;;16.70;99.90;;;;;;6186366;23;20009;-94
2023/05/12 10:10:13;;;;;;;7.68;5.20;;;16.70;99.90;;;;;;6185983;23;20000;-93
2023/05/12 10:12:39;;;;;;;7.25;5.40;;;16.70;99.90;;;;;;6162112;23;20012;-93
2023/05/12 10:15:06;;;;;;;6.43;5.47;;;16.80;99.90;;;;;;6186715;23;20013;-95
2023/05/12 10:17:34;;;;;;;7.28;5.50;;;16.70;99.90;;;;;;6185677;23;20005;-93
2023/05/12 10:20:01;;;;;;;6.03;5.15;;;16.80;99.90;;;;;;6186433;23;20047;-94
2023/05/12 10:22:29;;;;;;;8.80;5.60;;;16.80;99.90;;;;;;6161902;23;20005;-94
2023/05/12 10:24:56;;;;;;;6.30;5.65;;;16.80;99.90;;;;;;6187540;23;20005;-94
2023/05/12 10:27:24;;;;;;;8.10;5.80;;;16.80;99.90;;;;;;6163127;23;20021;-90
2023/05/12 10:29:50;;;;;;;6.97;5.65;;;16.90;99.90;;;;;;6152526;23;20382;-93
2023/05/12 10:32:16;;;;;;;7.72;6.28;;;16.90;99.90;;;;;;6190193;23;20000;-92
2023/05/12 10:34:42;;;;;;;7.82;6.15;;;16.90;99.90;;;;;;6164451;23;19981;-93
2023/05/12 10:37:09;;;;;;;6.97;5.65;;;17.00;99.90;;;;;;6163003;23;20009;-93
2023/05/12 10:39:37;;;;;;;7.88;5.90;;;17.10;99.90;;;;;;6205863;23;20017;-96
2023/05/12 10:42:09;;;;;;;6.47;5.70;;;17.10;99.90;;;;;;6189960;23;20017;-95
2023/05/12 10:44:46;;;;;;;7.05;6.22;;;17.10;99.90;;;;;;6164855;23;20017;-95
2023/05/12 10:47:16;;;;;;;10.15;7.22;;;17.20;99.90;;;;;;6190131;23;20005;-96
2023/05/12 10:49:42;;;;;;;9.43;6.43;;;17.30;99.90;;;;;;6190848;23;20005;-95
2023/05/12 10:52:11;;;;;;;6.93;6.20;;;17.30;99.90;;;;;;6165465;23;20059;-95
2023/05/12 10:54:43;;;;;;;7.72;7.03;;;17.30;99.90;;;;;;6191134;23;20005;-95
2023/05/12 10:57:22;;;;;;;8.10;7.25;;;17.40;99.90;;;;;;6189302;23;20005;-94
2023/05/12 10:59:56;;;;;;;9.50;8.60;;;17.40;99.90;;;;;;6163918;23;20088;-92
2023/05/12 11:02:32;;;;;;;8.13;7.45;;;17.50;99.90;;;;;;6188060;23;20031;-93
2023/05/12 11:05:03;;;;;;;8.75;7.97;;;17.50;99.90;;;;;;6188268;23;20032;-93
2023/05/12 11:07:31;;;;;;;7.82;7.13;;;17.60;99.90;;;;;;6187770;23;20036;-92
2023/05/12 11:10:00;;;;;;;8.95;8.15;;;17.60;99.90;;;;;;6187997;23;20452;-93
2023/05/12 11:12:27;;;;;;;8.48;7.68;;;17.70;99.90;;;;;;6187969;23;20005;-95
2023/05/12 11:14:53;;;;;;;9.02;8.30;;;17.80;99.90;;;;;;6165819;23;20013;-95
2023/05/12 11:17:19;;;;;;;9.25;7.00;;;17.80;99.90;;;;;;6167373;23;20009;-96
2023/05/12 11:19:47;;;;;;;8.95;8.15;;;17.90;99.90;;;;;;6190717;23;20052;-95
2023/05/12 11:22:15;;;;;;;9.15;8.25;;;17.90;99.90;;;;;;6189702;23;20084;-95
2023/05/12 11:24:41;;;;;;;8.35;7.55;;;18.00;99.90;;;;;;6189876;23;20448;-95
2023/05/12 11:27:12;;;;;;;7.45;6.85;;;18.10;99.90;;;;;;6139911;23;20001;-96
2023/05/12 11:29:40;;;;;;;7.18;6.28;;;18.10;99.90;;;;;;6188722;23;20001;-95
2023/05/12 11:32:07;;;;;;;5.70;5.10;;;18.10;99.90;;;;;;6188701;23;20021;-95
2023/05/12 11:34:33;;;;;;;5.97;5.38;;;18.20;99.90;;;;;;6189144;23;20010;-94
2023/05/12 11:36:59;;;;;;;6.82;5.57;;;18.30;99.90;;;;;;6187555;23;20471;-95
2023/05/12 11:39:31;;;;;;;6.50;5.78;;;18.30;99.90;;;;;;6187254;23;20186;-96
2023/05/12 11:42:05;;;;;;;6.97;6.20;;;18.40;99.90;;;;;;6187550;23;20037;-95
2023/05/12 11:44:31;;;;;;;9.77;8.82;;;18.50;99.90;;;;;;6187691;23;20005;-96
2023/05/12 11:47:07;;;;;;;9.27;8.32;;;18.50;99.90;;;;;;6162933;23;20020;-94
2023/05/12 11:49:33;;;;;;;9.52;8.73;;;18.60;99.90;;;;;;6186990;23;20001;-94
2023/05/12 11:52:01;;;;;;;13.13;12.23;;;18.70;99.90;;;;;;6162098;23;20016;-94
2023/05/12 11:54:30;;;;;;;12.75;11.63;;;18.70;99.90;;;;;;6187044;23;20037;-93
2023/05/12 11:56:56;;;;;;;12.35;11.45;;;18.80;99.90;;;;;;6161668;23;20016;-94
2023/05/12 11:59:28;;;;;;;13.13;11.77;;;18.90;99.90;;;;;;6162384;23;20442;-93
2023/05/12 12:01:54;;;;;;;12.80;11.70;;;18.90;99.90;;;;;;6186704;23;20005;-93
2023/05/12 12:07:42;;;;;;;12.05;11.15;;;19.10;99.90;;;;;;6188103;23;20071;-93
2023/05/12 12:10:13;;;;;;;11.75;10.75;;;19.10;99.90;;;;;;6186328;23;20360;-93
2023/05/12 12:12:39;;;;;;;;;;;19.10;99.90;;;;;;6162276;23;20024;-92
2023/05/12 12:15:06;;;;;;;11.40;10.60;;;19.10;99.90;;;;;;6186512;23;19904;-92
2023/05/12 12:17:31;;;;;;;12.32;11.43;;;19.20;99.90;;;;;;6137317;23;20040;-92
2023/05/12 12:19:57;;;;;;;12.20;11.20;;;19.20;99.90;;;;;;6171071;23;20001;-94
2023/05/12 12:22:23;;;;;;;11.38;10.50;;;19.20;99.90;;;;;;6156715;23;20328;-95
2023/05/12 12:24:49;;;;;;;15.10;14.02;;;19.20;99.90;;;;;;6180109;23;20134;-93
2023/05/12 12:27:14;;;;;;;11.10;10.20;;;19.20;99.90;;;;;;6181018;23;20008;-93
2023/05/12 12:29:40;;;;;;;13.40;12.50;;;19.30;99.90;;;;;;6154374;23;20014;-93
2023/05/12 12:32:07;;;;;;;11.95;11.05;;;19.30;99.90;;;;;;6151081;23;20012;-92
2023/05/12 12:34:33;;;;;;;12.88;11.88;;;19.30;99.90;;;;;;6163600;23;20341;-93
2023/05/12 12:36:59;;;;;;;12.60;11.07;;;19.30;99.90;;;;;;6138390;23;20009;-93
2023/05/12 12:39:25;;;;;;;15.43;14.32;;;19.40;99.90;;;;;;6186718;23;20384;-94
2023/05/12 12:41:50;;;;;;;9.77;8.95;;;19.40;99.90;;;;;;6161879;23;20314;-94
2023/05/12 12:44:16;;;;;;;89.22;84.55;;;19.40;99.90;;;;;;6137904;23;20007;-95
2023/05/12 12:46:42;;;;;;;1999.90;999.90;;;19.40;99.90;;;;;;6188575;23;20004;-94
2023/05/12 12:49:08;;;;;;;65.28;61.42;;;19.50;99.90;;;;;;6189755;23;20037;-95
2023/05/12 12:51:35;;;;;;;1511.88;761.25;;;19.60;99.90;;;;;;6140211;23;20009;-94
2023/05/12 12:54:00;;;;;;;114.18;108.10;;;19.60;99.90;;;;;;6163399;23;20401;-91
2023/05/12 12:56:26;;;;;;;45.38;42.88;;;19.70;99.90;;;;;;6163666;23;20009;-91
2023/05/12 12:58:51;;;;;;;239.15;226.32;;;19.70;99.90;;;;;;6138723;23;20091;-92
2023/05/12 13:01:17;;;;;;;18.42;17.02;;;19.80;99.90;;;;;;6139466;23;20016;-93
2023/05/12 13:03:43;;;;;;;5.32;3.95;;;19.80;99.90;;;;;;6162283;23;20001;-93
2023/05/12 13:06:09;;;;;;;4.85;4.20;;;19.90;99.90;;;;;;6161857;23;20005;-93
2023/05/12 13:08:34;;;;;;;5.55;4.38;;;19.90;99.90;;;;;;6162981;23;20008;-94
2023/05/12 13:11:00;;;;;;;5.10;4.00;;;20.00;99.90;;;;;;6163868;23;20012;-95
2023/05/12 13:13:26;;;;;;;6.35;4.20;;;20.00;99.90;;;;;;6163969;23;20009;-94
2023/05/12 13:15:52;;;;;;;6.03;4.80;;;20.10;99.90;;;;;;6138974;23;20344;-94
2023/05/12 13:18:18;;;;;;;5.18;4.60;;;20.10;99.90;;;;;;6163244;23;20005;-92
2023/05/12 13:20:44;;;;;;;6.72;5.20;;;20.10;99.90;;;;;;6187765;23;20009;-95
2023/05/12 13:23:09;;;;;;;5.57;4.63;;;20.20;99.90;;;;;;6165265;23;20377;-94
2023/05/12 13:25:35;;;;;;;5.50;4.65;;;20.20;99.90;;;;;;6139567;23;20028;-91
2023/05/12 13:28:01;;;;;;;7.28;5.20;;;20.20;99.90;;;;;;6136557;23;20013;-91
2023/05/12 13:30:27;;;;;;;9.45;5.18;;;20.20;99.90;;;;;;6161399;23;20015;-92
2023/05/12 13:32:53;;;;;;;5.55;4.72;;;20.30;99.90;;;;;;6161347;23;20065;-92
2023/05/12 13:35:18;;;;;;;6.93;4.35;;;20.40;99.90;;;;;;6161741;23;20017;-91
2023/05/12 13:37:44;;;;;;;6.43;5.00;;;20.40;99.90;;;;;;6136743;23;20012;-91
2023/05/12 13:40:10;;;;;;;5.75;5.00;;;20.40;99.90;;;;;;6137905;23;20012;-90
2023/05/12 13:42:35;;;;;;;8.50;5.25;;;20.40;99.90;;;;;;6136379;23;20155;-91
2023/05/12 13:45:01;;;;;;;5.95;5.20;;;20.50;99.90;;;;;;6136653;23;20436;-90
2023/05/12 13:47:27;;;;;;;6.30;5.18;;;20.50;99.90;;;;;;6137259;23;20013;-91
2023/05/12 13:49:55;;;;;;;6.18;5.45;;;20.50;99.90;;;;;;6136479;23;20092;-92
2023/05/12 13:52:20;;;;;;;5.82;5.22;;;20.50;99.90;;;;;;6161732;23;20012;-91
2023/05/12 13:54:46;;;;;;;5.55;5.00;;;20.60;99.90;;;;;;6185588;23;20005;-92
2023/05/12 13:57:13;;;;;;;6.90;5.22;;;20.70;99.90;;;;;;6161042;23;20012;-90
2023/05/12 13:59:38;;;;;;;7.43;5.72;;;20.70;99.90;;;;;;6166841;23;20009;-90
2023/05/12 14:02:08;;;;;;;6.90;5.82;;;20.80;99.90;;;;;;6162598;23;20011;-89
2023/05/12 14:04:34;;;;;;;6.78;5.35;;;20.90;99.90;;;;;;6195363;23;20028;-93
2023/05/12 14:06:59;;;;;;;6.30;5.63;;;21.00;99.90;;;;;;6176141;23;20005;-93
2023/05/12 14:09:25;;;;;;;7.57;5.63;;;21.10;99.90;;;;;;6163990;23;20013;-94
2023/05/12 14:11:52;;;;;;;5.93;5.32;;;21.20;99.90;;;;;;6163941;23;20009;-94
2023/05/12 14:14:18;;;;;;;6.10;5.20;;;21.20;99.90;;;;;;6139705;23;20013;-93
2023/05/12 14:16:44;;;;;;;6.97;6.03;;;21.30;99.90;;;;;;6141024;23;20062;-90
2023/05/12 14:19:10;;;;;;;10.60;5.88;;;21.40;99.90;;;;;;6164044;23;20151;-89
2023/05/12 14:21:35;;;;;;;6.05;5.45;;;21.40;99.90;;;;;;6188397;23;20451;-89
2023/05/12 14:24:01;;;;;;;8.75;6.28;;;21.50;99.90;;;;;;6138523;23;20443;-90
2023/05/12 14:26:27;;;;;;;7.35;5.75;;;21.50;99.90;;;;;;6138771;23;20337;-90
2023/05/12 14:28:52;;;;;;;8.35;6.80;;;21.60;99.90;;;;;;6188064;23;20029;-90
2023/05/12 14:31:18;;;;;;;9.05;7.22;;;21.60;99.90;;;;;;6163563;23;20375;-90
2023/05/12 14:33:44;;;;;;;6.45;5.75;;;21.70;99.90;;;;;;6157288;23;20009;-94
2023/05/12 14:36:10;;;;;;;6.38;5.57;;;21.70;99.90;;;;;;6146356;23;20033;-94
2023/05/12 14:38:35;;;;;;;7.13;6.40;;;21.80;99.90;;;;;;6164135;23;20005;-94
2023/05/12 14:41:01;;;;;;;7.68;6.85;;;21.80;99.90;;;;;;6164316;23;20017;-93
2023/05/12 14:43:27;;;;;;;13.02;9.20;;;21.80;99.90;;;;;;6139969;23;20009;-93
2023/05/12 14:45:56;;;;;;;9.82;7.65;;;21.80;99.90;;;;;;6140205;23;20029;-95
2023/05/12 14:48:24;;;;;;;9.25;6.95;;;21.80;99.90;;;;;;6141673;23;20009;-95
2023/05/12 14:50:55;;;;;;;7.03;5.75;;;21.80;99.90;;;;;;6187977;23;20005;-89
2023/05/12 14:53:21;;;;;;;6.15;5.55;;;21.80;99.90;;;;;;6187882;23;20001;-89